createdAt,value
2023-08-13T00:00:19.275Z,66.60
2023-08-13T00:02:48.947Z,66.60
2023-08-13T00:05:18.245Z,66.70
2023-08-13T00:07:47.348Z,66.80
2023-08-13T00:10:18.588Z,67.40
2023-08-13T00:12:50.647Z,66.90
2023-08-13T00:15:17.570Z,66.80
2023-08-13T00:17:44.425Z,66.90
2023-08-13T00:20:11.974Z,67.10
2023-08-13T00:22:38.849Z,67.20
2023-08-13T00:25:06.377Z,67.20
2023-08-13T00:27:35.480Z,67.20
2023-08-13T00:30:06.492Z,67.10
2023-08-13T00:32:33.551Z,67.30
2023-08-13T00:35:03.088Z,67.20
2023-08-13T00:37:32.221Z,67.30
2023-08-13T00:39:59.980Z,67.30
2023-08-13T00:42:27.131Z,67.30
2023-08-13T00:44:56.428Z,67.40
2023-08-13T00:47:28.605Z,67.40
2023-08-13T00:49:58.155Z,67.50
2023-08-13T00:52:27.434Z,67.30
2023-08-13T00:54:59.377Z,67.40
2023-08-13T00:57:28.684Z,67.40
2023-08-13T00:59:56.049Z,67.50
2023-08-13T01:02:28.644Z,67.40
2023-08-13T01:04:56.316Z,67.40
2023-08-13T01:07:33.872Z,67.40
2023-08-13T01:10:34.850Z,67.60
2023-08-13T01:13:24.988Z,67.70
2023-08-13T01:15:58.883Z,67.80
2023-08-13T01:18:27.988Z,67.40
2023-08-13T01:20:56.884Z,67.40
2023-08-13T01:23:26.185Z,67.50
2023-08-13T01:26:02.502Z,67.60
2023-08-13T01:29:11.532Z,67.90
2023-08-13T01:31:40.484Z,68.20
2023-08-13T01:34:13.785Z,67.80
2023-08-13T01:36:46.617Z,67.80
2023-08-13T01:39:18.670Z,67.90
2023-08-13T01:42:02.818Z,67.90
2023-08-13T01:44:31.908Z,68.20
2023-08-13T01:47:03.686Z,68.00
2023-08-13T01:49:32.732Z,68.20
2023-08-13T01:52:02.093Z,68.10
2023-08-13T01:54:29.106Z,68.30
2023-08-13T01:56:58.474Z,68.20
2023-08-13T01:59:27.957Z,68.20
2023-08-13T02:01:57.003Z,68.30
2023-08-13T02:04:23.875Z,68.30
2023-08-13T02:06:53.982Z,68.20
2023-08-13T02:09:25.360Z,68.10
2023-08-13T02:11:54.343Z,68.20
2023-08-13T02:14:25.973Z,68.20
2023-08-13T02:16:55.564Z,68.40
2023-08-13T02:19:25.024Z,68.40
2023-08-13T02:21:54.350Z,68.40
2023-08-13T02:24:21.426Z,68.40
2023-08-13T02:26:50.831Z,68.40
2023-08-13T02:29:20.167Z,68.50
2023-08-13T02:31:46.985Z,68.60
2023-08-13T02:34:13.836Z,68.50
2023-08-13T02:36:41.108Z,68.60
2023-08-13T02:39:09.540Z,68.70
2023-08-13T02:41:40.780Z,68.80
2023-08-13T02:44:10.200Z,68.80
2023-08-13T02:46:39.319Z,68.80
2023-08-13T02:49:10.867Z,68.80
2023-08-13T02:51:42.621Z,69.00
2023-08-13T02:54:11.786Z,69.50
2023-08-13T02:56:42.640Z,68.90
2023-08-13T02:59:10.044Z,68.90
2023-08-13T03:01:39.748Z,68.90
2023-08-13T03:04:09.360Z,69.00
2023-08-13T03:06:38.739Z,69.00
2023-08-13T03:09:08.418Z,69.00
2023-08-13T03:11:35.315Z,69.00
2023-08-13T03:14:04.351Z,69.00
2023-08-13T03:16:33.831Z,69.10
2023-08-13T03:19:03.300Z,69.10
2023-08-13T03:21:32.581Z,69.00
2023-08-13T03:24:01.525Z,69.00
2023-08-13T03:26:28.496Z,69.10
2023-08-13T03:28:57.341Z,69.10
2023-08-13T03:31:26.492Z,69.20
2023-08-13T03:34:03.059Z,69.20
2023-08-13T03:36:29.952Z,69.20
2023-08-13T03:38:59.373Z,69.30
2023-08-13T03:41:31.024Z,69.50
2023-08-13T03:43:57.938Z,69.50
2023-08-13T03:46:24.803Z,69.50
2023-08-13T03:48:56.657Z,69.40
2023-08-13T03:51:25.992Z,69.50
2023-08-13T03:53:57.428Z,69.50
2023-08-13T03:56:27.143Z,69.50
2023-08-13T03:58:54.011Z,69.50
2023-08-13T04:01:21.386Z,69.60
2023-08-13T04:03:54.018Z,69.60
2023-08-13T04:06:21.408Z,69.60
2023-08-13T04:08:48.629Z,69.60
2023-08-13T04:11:15.567Z,69.60
2023-08-13T04:13:44.940Z,69.60
2023-08-13T04:16:12.141Z,69.80
2023-08-13T04:18:39.708Z,69.80
2023-08-13T04:21:11.683Z,69.80
2023-08-13T04:23:39.226Z,70.00
2023-08-13T04:26:06.387Z,69.90
2023-08-13T04:28:35.861Z,69.90
2023-08-13T04:31:03.296Z,69.90
2023-08-13T04:33:37.717Z,70.40
2023-08-13T04:36:07.189Z,70.10
2023-08-13T04:38:36.648Z,70.00
2023-08-13T04:41:10.609Z,70.00
2023-08-13T04:43:43.442Z,70.00
2023-08-13T04:46:13.448Z,70.00
2023-08-13T04:48:51.753Z,70.20
2023-08-13T04:51:29.145Z,70.40
2023-08-13T04:53:59.628Z,70.20
2023-08-13T04:56:33.871Z,70.10
2023-08-13T04:59:02.306Z,70.20
2023-08-13T05:01:29.775Z,70.20
2023-08-13T05:04:00.916Z,70.30
2023-08-13T05:06:30.232Z,70.20
2023-08-13T05:08:59.155Z,70.10
2023-08-13T05:11:26.794Z,70.20
2023-08-13T05:13:55.886Z,70.20
2023-08-13T05:16:27.290Z,70.30
2023-08-13T05:18:55.408Z,70.30
2023-08-13T05:21:22.310Z,70.40
2023-08-13T05:23:56.366Z,70.40
2023-08-13T05:26:23.375Z,70.30
2023-08-13T05:28:55.146Z,70.40
2023-08-13T05:31:24.672Z,70.50
2023-08-13T05:33:54.884Z,70.30
2023-08-13T05:36:22.680Z,70.30
2023-08-13T05:38:54.589Z,70.40
2023-08-13T05:41:27.367Z,70.50
2023-08-13T05:43:54.768Z,70.50
2023-08-13T05:46:23.690Z,70.50
2023-08-13T05:48:52.974Z,70.40
2023-08-13T05:51:19.899Z,70.40
2023-08-13T05:53:51.345Z,70.40
2023-08-13T05:56:19.056Z,70.50
2023-08-13T05:58:50.303Z,70.40
2023-08-13T06:01:17.195Z,70.50
2023-08-13T06:03:44.141Z,70.60
2023-08-13T06:06:16.738Z,70.60
2023-08-13T06:08:45.853Z,70.60
2023-08-13T06:11:17.178Z,70.60
2023-08-13T06:13:46.453Z,70.60
2023-08-13T06:16:13.346Z,70.70
2023-08-13T06:18:47.309Z,70.70
2023-08-13T06:21:14.393Z,70.70
2023-08-13T06:23:43.617Z,70.60
2023-08-13T06:26:10.575Z,70.60
2023-08-13T06:28:38.594Z,70.60
2023-08-13T06:31:19.334Z,70.60
2023-08-13T06:33:55.569Z,70.60
2023-08-13T06:36:29.549Z,70.60
2023-08-13T06:38:56.880Z,70.70
2023-08-13T06:41:23.697Z,70.60
2023-08-13T06:43:54.156Z,70.70
2023-08-13T06:46:23.405Z,70.80
2023-08-13T06:48:50.243Z,70.70
2023-08-13T06:51:19.499Z,70.70
2023-08-13T06:53:53.462Z,70.70
2023-08-13T06:56:20.308Z,70.70
2023-08-13T06:58:49.603Z,70.60
2023-08-13T07:01:16.529Z,70.60
2023-08-13T07:03:45.986Z,70.60
2023-08-13T07:06:12.874Z,70.60
2023-08-13T07:08:39.824Z,70.60
2023-08-13T07:11:07.080Z,70.60
2023-08-13T07:13:33.939Z,70.50
2023-08-13T07:16:01.118Z,70.40
2023-08-13T07:18:28.005Z,70.40
2023-08-13T07:20:56.968Z,70.30
2023-08-13T07:23:23.859Z,70.20
2023-08-13T07:25:53.138Z,70.20
2023-08-13T07:28:20.066Z,70.20
2023-08-13T07:30:51.594Z,70.10
2023-08-13T07:33:18.535Z,70.10
2023-08-13T07:35:45.435Z,70.10
2023-08-13T07:38:12.477Z,70.10
2023-08-13T07:40:39.341Z,70.10
2023-08-13T07:43:06.223Z,70.10
2023-08-13T07:45:34.304Z,70.10
2023-08-13T07:48:06.163Z,70.00
2023-08-13T07:50:35.771Z,69.90
2023-08-13T07:53:07.630Z,69.80
2023-08-13T07:55:34.649Z,69.70
2023-08-13T07:58:01.533Z,69.60
2023-08-13T08:00:28.613Z,69.60
2023-08-13T08:02:55.501Z,69.70
2023-08-13T08:05:22.764Z,69.50
2023-08-13T08:07:49.950Z,69.30
2023-08-13T08:10:16.852Z,69.30
2023-08-13T08:12:48.303Z,69.10
2023-08-13T08:15:17.474Z,69.10
2023-08-13T08:17:46.630Z,69.00
2023-08-13T08:20:15.564Z,68.80
2023-08-13T08:22:42.599Z,68.80
2023-08-13T08:25:12.340Z,68.50
2023-08-13T08:27:39.364Z,68.20
2023-08-13T08:30:07.337Z,68.10
2023-08-13T08:32:36.241Z,67.90
2023-08-13T08:35:05.357Z,68.00
2023-08-13T08:37:37.987Z,67.80
2023-08-13T08:40:08.395Z,67.60
2023-08-13T08:42:37.373Z,67.60
2023-08-13T08:45:06.209Z,67.50
2023-08-13T08:47:35.578Z,67.50
2023-08-13T08:50:05.749Z,67.30
2023-08-13T08:52:39.912Z,67.20
2023-08-13T08:55:07.578Z,66.80
2023-08-13T08:57:35.063Z,66.70
2023-08-13T09:00:05.535Z,66.70
2023-08-13T09:02:33.097Z,66.50
2023-08-13T09:05:00.142Z,66.50
2023-08-13T09:07:33.683Z,66.50
2023-08-13T09:10:05.165Z,66.10
2023-08-13T09:12:44.251Z,65.80
2023-08-13T09:15:13.987Z,65.80
2023-08-13T09:17:43.001Z,65.70
2023-08-13T09:20:21.918Z,65.70
2023-08-13T09:22:51.213Z,65.20
2023-08-13T09:25:23.956Z,65.60
2023-08-13T09:27:58.498Z,65.20
2023-08-13T09:30:32.133Z,65.20
2023-08-13T09:33:01.247Z,65.10
2023-08-13T09:35:32.864Z,65.00
2023-08-13T09:38:02.236Z,64.60
2023-08-13T09:40:31.661Z,64.40
2023-08-13T09:43:00.508Z,64.10
2023-08-13T09:45:32.289Z,63.90
2023-08-13T09:48:11.956Z,63.60
2023-08-13T09:50:44.109Z,63.60
2023-08-13T09:53:15.861Z,63.50
2023-08-13T09:55:57.960Z,63.50
2023-08-13T09:58:29.534Z,63.30
2023-08-13T10:00:57.397Z,63.40
2023-08-13T10:03:28.981Z,62.90
2023-08-13T10:06:01.122Z,62.90
2023-08-13T10:08:33.341Z,62.60
2023-08-13T10:11:01.395Z,62.70
2023-08-13T10:13:31.000Z,62.50
2023-08-13T10:16:03.098Z,62.40
2023-08-13T10:18:34.266Z,62.00
2023-08-13T10:21:03.960Z,62.00
2023-08-13T10:23:40.931Z,62.00
2023-08-13T10:26:12.369Z,61.70
2023-08-13T10:28:41.413Z,61.60
2023-08-13T10:31:26.077Z,61.40
2023-08-13T10:34:10.529Z,60.20
2023-08-13T10:36:51.997Z,60.20
2023-08-13T10:39:38.079Z,60.40
2023-08-13T10:42:28.272Z,60.40
2023-08-13T10:45:09.847Z,60.00
2023-08-13T10:47:48.131Z,60.40
2023-08-13T10:50:19.913Z,60.10
2023-08-13T10:53:05.221Z,60.50
2023-08-13T10:55:42.892Z,60.00
2023-08-13T10:58:27.111Z,60.20
2023-08-13T11:01:00.597Z,59.90
2023-08-13T11:03:31.944Z,59.80
2023-08-13T11:06:05.877Z,59.90
2023-08-13T11:11:04.449Z,60.10
2023-08-13T11:13:33.752Z,60.10
2023-08-13T11:16:03.137Z,59.70
2023-08-13T11:18:37.124Z,59.60
2023-08-13T11:21:08.803Z,58.60
2023-08-13T11:23:40.511Z,58.60
2023-08-13T11:26:08.941Z,58.30
2023-08-13T11:28:35.842Z,58.30
2023-08-13T11:31:02.774Z,58.10
2023-08-13T11:33:30.204Z,58.30
2023-08-13T11:35:57.940Z,58.40
2023-08-13T11:38:27.662Z,58.10
2023-08-13T11:40:55.588Z,58.10
2023-08-13T11:43:29.323Z,58.80
2023-08-13T11:45:56.689Z,58.00
2023-08-13T11:48:28.451Z,58.00
2023-08-13T11:51:23.703Z,57.80
2023-08-13T11:53:51.561Z,57.00
2023-08-13T11:56:23.060Z,57.10
2023-08-13T11:58:54.486Z,57.10
2023-08-13T12:01:25.772Z,57.10
2023-08-13T12:03:56.619Z,56.80
2023-08-13T12:06:23.585Z,57.00
2023-08-13T12:08:53.436Z,57.00
2023-08-13T12:11:22.665Z,57.10
2023-08-13T12:13:56.383Z,57.40
2023-08-13T12:16:28.032Z,57.30
2023-08-13T12:18:58.345Z,56.90
2023-08-13T12:21:27.944Z,56.80
2023-08-13T12:23:57.146Z,56.20
2023-08-13T12:26:27.881Z,56.50
2023-08-13T12:28:54.962Z,56.20
2023-08-13T12:31:23.582Z,56.40
2023-08-13T12:33:55.261Z,56.20
2023-08-13T12:36:24.260Z,56.10
2023-08-13T12:38:51.213Z,55.80
2023-08-13T12:41:30.499Z,55.20
2023-08-13T12:44:05.560Z,54.80
2023-08-13T12:46:34.604Z,54.20
2023-08-13T12:49:06.089Z,53.80
2023-08-13T12:51:33.044Z,53.30
2023-08-13T12:54:02.504Z,53.10
2023-08-13T12:56:31.808Z,52.50
2023-08-13T12:58:58.753Z,52.50
2023-08-13T13:01:25.798Z,52.20
2023-08-13T13:03:52.739Z,51.70
2023-08-13T13:06:21.905Z,51.80
2023-08-13T13:08:48.810Z,52.00
2023-08-13T13:11:20.706Z,51.80
2023-08-13T13:13:47.703Z,52.00
2023-08-13T13:16:16.898Z,51.80
2023-08-13T13:18:44.920Z,51.80
2023-08-13T13:21:16.518Z,51.30
2023-08-13T13:23:43.443Z,50.80
2023-08-13T13:26:16.592Z,49.80
2023-08-13T13:28:45.406Z,49.80
2023-08-13T13:31:12.842Z,50.00
2023-08-13T13:33:42.287Z,49.40
2023-08-13T13:36:09.207Z,48.80
2023-08-13T13:38:38.701Z,48.30
2023-08-13T13:41:07.919Z,47.90
2023-08-13T13:43:36.838Z,47.10
2023-08-13T13:46:06.125Z,47.50
2023-08-13T13:48:35.348Z,47.10
2023-08-13T13:51:04.746Z,47.20
2023-08-13T13:53:34.077Z,47.30
2023-08-13T13:56:00.986Z,47.50
2023-08-13T13:58:28.220Z,47.10
2023-08-13T14:00:57.595Z,47.00
2023-08-13T14:03:27.474Z,46.50
2023-08-13T14:05:54.696Z,45.80
2023-08-13T14:08:23.824Z,45.60
2023-08-13T14:10:52.730Z,45.90
2023-08-13T14:13:19.530Z,46.00
2023-08-13T14:15:46.587Z,45.90
2023-08-13T14:18:17.665Z,45.40
2023-08-13T14:20:53.073Z,45.40
2023-08-13T14:23:22.422Z,45.10
2023-08-13T14:25:51.167Z,45.30
2023-08-13T14:28:20.404Z,45.40
2023-08-13T14:30:49.729Z,45.40
2023-08-13T14:33:16.661Z,45.30
2023-08-13T14:35:43.629Z,45.10
2023-08-13T14:38:15.228Z,45.20
2023-08-13T14:40:46.683Z,45.20
2023-08-13T14:43:13.699Z,45.20
2023-08-13T14:45:40.671Z,45.40
2023-08-13T14:48:09.871Z,45.30
2023-08-13T14:50:36.814Z,45.30
2023-08-13T14:53:05.910Z,45.50
2023-08-13T14:55:35.333Z,45.50
2023-08-13T14:58:02.250Z,45.50
2023-08-13T15:00:29.382Z,45.50
2023-08-13T15:02:59.045Z,45.60
2023-08-13T15:05:30.536Z,45.70
2023-08-13T15:07:57.480Z,45.80
2023-08-13T15:10:26.350Z,46.20
2023-08-13T15:12:55.457Z,45.90
2023-08-13T15:15:24.582Z,45.60
2023-08-13T15:17:51.614Z,45.20
2023-08-13T15:20:19.577Z,45.10
2023-08-13T15:22:49.036Z,44.80
2023-08-13T15:25:18.138Z,44.90
2023-08-13T15:27:49.400Z,44.80
2023-08-13T15:30:16.990Z,44.70
2023-08-13T15:32:44.447Z,44.50
2023-08-13T15:35:13.829Z,44.50
2023-08-13T15:37:40.804Z,44.70
2023-08-13T15:40:08.749Z,44.70
2023-08-13T15:42:36.235Z,44.30
2023-08-13T15:45:06.211Z,43.80
2023-08-13T15:47:35.612Z,43.70
2023-08-13T15:50:03.359Z,43.60
2023-08-13T15:52:30.368Z,43.60
2023-08-13T15:54:59.915Z,44.50
2023-08-13T15:57:26.793Z,43.30
2023-08-13T15:59:55.773Z,43.50
2023-08-13T16:02:22.570Z,43.20
2023-08-13T16:04:54.130Z,43.20
2023-08-13T16:07:25.331Z,42.80
2023-08-13T16:09:54.472Z,42.90
2023-08-13T16:12:21.335Z,42.20
2023-08-13T16:14:50.468Z,42.10
2023-08-13T16:17:17.535Z,41.50
2023-08-13T16:19:44.520Z,41.30
2023-08-13T16:22:16.498Z,40.80
2023-08-13T16:24:45.734Z,40.40
2023-08-13T16:27:12.588Z,40.20
2023-08-13T16:29:39.439Z,39.90
2023-08-13T16:32:20.282Z,39.70
2023-08-13T16:34:55.076Z,39.60
2023-08-13T16:37:21.982Z,39.60
2023-08-13T16:39:48.875Z,39.70
2023-08-13T16:42:15.916Z,39.50
2023-08-13T16:44:43.043Z,39.50
2023-08-13T16:47:14.484Z,39.60
2023-08-13T16:49:46.719Z,40.30
2023-08-13T16:52:13.766Z,39.80
2023-08-13T16:54:43.024Z,39.80
2023-08-13T16:57:18.118Z,40.20
2023-08-13T16:59:45.667Z,40.20
2023-08-13T17:02:12.796Z,40.50
2023-08-13T17:04:39.913Z,40.60
2023-08-13T17:07:06.922Z,40.80
2023-08-13T17:09:33.816Z,41.00
2023-08-13T17:12:05.208Z,41.00
2023-08-13T17:14:36.848Z,40.90
2023-08-13T17:17:13.134Z,41.00
2023-08-13T17:19:42.267Z,41.20
2023-08-13T17:22:11.263Z,41.30
2023-08-13T17:24:40.744Z,41.50
2023-08-13T17:27:10.212Z,41.60
2023-08-13T17:29:37.184Z,41.70
2023-08-13T17:32:10.727Z,41.90
2023-08-13T17:34:37.673Z,42.10
2023-08-13T17:37:05.285Z,42.10
2023-08-13T17:39:36.650Z,42.20
2023-08-13T17:42:06.382Z,42.40
2023-08-13T17:44:40.211Z,42.50
2023-08-13T17:47:09.237Z,42.60
2023-08-13T17:49:41.039Z,42.70
2023-08-13T17:52:10.184Z,42.90
2023-08-13T17:54:37.067Z,42.90
2023-08-13T17:57:06.260Z,42.90
2023-08-13T17:59:35.273Z,43.00
2023-08-13T18:02:05.374Z,43.00
2023-08-13T18:04:32.398Z,43.40
2023-08-13T18:07:01.543Z,43.40
2023-08-13T18:09:32.838Z,43.60
2023-08-13T18:12:02.312Z,43.60
2023-08-13T18:14:33.470Z,43.50
2023-08-13T18:17:02.689Z,43.70
2023-08-13T18:19:36.484Z,43.80
2023-08-13T18:22:03.724Z,43.90
2023-08-13T18:24:33.716Z,44.00
2023-08-13T18:27:02.764Z,44.20
2023-08-13T18:29:34.878Z,44.20
2023-08-13T18:32:01.785Z,44.20
2023-08-13T18:34:33.443Z,44.40
2023-08-13T18:37:00.431Z,44.60
2023-08-13T18:39:36.363Z,44.50
2023-08-13T18:42:05.924Z,44.70
2023-08-13T18:44:35.315Z,44.90
2023-08-13T18:47:04.458Z,45.00
2023-08-13T18:49:36.738Z,45.10
2023-08-13T18:52:03.775Z,45.20
2023-08-13T18:54:33.281Z,45.30
2023-08-13T18:57:05.535Z,45.70
2023-08-13T18:59:32.793Z,45.70
2023-08-13T19:01:59.608Z,45.80
2023-08-13T19:04:26.555Z,45.90
2023-08-13T19:06:53.536Z,46.10
2023-08-13T19:09:23.703Z,46.10
2023-08-13T19:11:51.002Z,46.30
2023-08-13T19:14:17.890Z,46.40
2023-08-13T19:16:49.785Z,46.50
2023-08-13T19:19:21.005Z,46.70
2023-08-13T19:21:47.889Z,46.80
2023-08-13T19:24:17.011Z,46.90
2023-08-13T19:26:46.451Z,47.00
2023-08-13T19:29:13.400Z,47.10
2023-08-13T19:31:42.921Z,47.10
2023-08-13T19:34:09.976Z,47.30
2023-08-13T19:36:36.972Z,47.40
2023-08-13T19:39:06.448Z,47.60
2023-08-13T19:41:33.419Z,47.80
2023-08-13T19:44:02.457Z,47.70
2023-08-13T19:46:31.815Z,47.80
2023-08-13T19:49:00.930Z,47.90
2023-08-13T19:51:28.107Z,48.10
2023-08-13T19:53:55.087Z,48.10
2023-08-13T19:56:22.359Z,48.30
2023-08-13T19:58:52.130Z,48.40
2023-08-13T20:01:24.119Z,48.50
2023-08-13T20:03:51.111Z,48.60
2023-08-13T20:06:20.582Z,48.80
2023-08-13T20:08:49.726Z,48.90
2023-08-13T20:11:16.616Z,49.00
2023-08-13T20:13:43.604Z,49.10
2023-08-13T20:16:10.544Z,49.10
2023-08-13T20:18:39.804Z,49.30
2023-08-13T20:21:09.344Z,49.40
2023-08-13T20:23:38.648Z,49.70
2023-08-13T20:26:05.768Z,49.80
2023-08-13T20:28:39.984Z,49.80
2023-08-13T20:31:07.176Z,50.00
2023-08-13T20:33:34.026Z,50.10
2023-08-13T20:36:05.646Z,50.20
2023-08-13T20:38:33.771Z,50.30
2023-08-13T20:41:02.988Z,50.50
2023-08-13T20:43:29.988Z,50.60
2023-08-13T20:45:56.983Z,50.80
2023-08-13T20:48:23.993Z,50.90
2023-08-13T20:50:51.438Z,51.20
2023-08-13T20:53:22.663Z,51.40
2023-08-13T20:55:52.218Z,51.60
2023-08-13T20:58:19.246Z,51.50
2023-08-13T21:00:53.372Z,51.60
2023-08-13T21:03:22.916Z,51.90
2023-08-13T21:05:52.835Z,51.70
2023-08-13T21:08:19.795Z,51.80
2023-08-13T21:10:49.129Z,51.80
2023-08-13T21:13:18.307Z,52.00
2023-08-13T21:15:50.015Z,52.30
2023-08-13T21:18:16.923Z,52.50
2023-08-13T21:20:46.041Z,52.50
2023-08-13T21:23:15.154Z,52.50
2023-08-13T21:25:42.012Z,52.70
2023-08-13T21:28:11.359Z,52.70
2023-08-13T21:30:45.090Z,52.90
2023-08-13T21:33:16.569Z,53.00
2023-08-13T21:35:48.587Z,53.10
2023-08-13T21:38:17.608Z,53.40
2023-08-13T21:40:46.801Z,53.30
2023-08-13T21:43:16.591Z,53.40
2023-08-13T21:45:45.864Z,53.50
2023-08-13T21:48:14.837Z,53.60
2023-08-13T21:50:42.854Z,53.70
2023-08-13T21:53:11.747Z,53.80
2023-08-13T21:55:38.662Z,54.00
2023-08-13T21:58:11.196Z,54.10
2023-08-13T22:00:40.182Z,54.50
2023-08-13T22:03:09.564Z,54.40
2023-08-13T22:05:47.095Z,54.50
2023-08-13T22:08:16.287Z,55.00
2023-08-13T22:10:46.494Z,54.70
2023-08-13T22:13:13.388Z,54.60
2023-08-13T22:15:40.375Z,54.70
2023-08-13T22:18:10.842Z,54.70
2023-08-13T22:20:37.750Z,54.90
2023-08-13T22:23:04.652Z,55.00
2023-08-13T22:25:34.576Z,55.10
2023-08-13T22:28:08.431Z,55.10
2023-08-13T22:30:37.853Z,55.30
2023-08-13T22:33:05.059Z,55.40
2023-08-13T22:35:34.238Z,55.40
2023-08-13T22:38:04.355Z,55.50
2023-08-13T22:40:33.782Z,55.70
2023-08-13T22:43:05.224Z,55.80
2023-08-13T22:45:32.148Z,55.90
2023-08-13T22:48:06.305Z,56.00
2023-08-13T22:50:38.353Z,56.10
2023-08-13T22:53:05.211Z,56.10
2023-08-13T22:55:34.528Z,56.20
2023-08-13T22:58:03.861Z,56.40
2023-08-13T23:00:37.585Z,56.40
2023-08-13T23:03:08.747Z,56.60
2023-08-13T23:05:42.293Z,56.40
2023-08-13T23:08:11.546Z,56.50
2023-08-13T23:10:42.951Z,56.60
2023-08-13T23:13:16.723Z,56.60
2023-08-13T23:15:43.828Z,56.70
2023-08-13T23:18:12.044Z,56.70
2023-08-13T23:20:39.013Z,56.90
2023-08-13T23:23:10.710Z,56.90
2023-08-13T23:25:37.635Z,57.10
2023-08-13T23:28:09.351Z,57.10
2023-08-13T23:30:43.686Z,57.30
2023-08-13T23:33:10.563Z,58.00
2023-08-13T23:35:39.889Z,57.50
2023-08-13T23:38:11.993Z,57.60
2023-08-13T23:40:41.255Z,57.70
2023-08-13T23:43:10.433Z,57.70
2023-08-13T23:45:40.511Z,57.90
2023-08-13T23:48:09.919Z,58.00
2023-08-13T23:50:50.381Z,58.00
2023-08-13T23:53:24.483Z,58.80
2023-08-13T23:55:51.305Z,58.20
2023-08-13T23:58:22.877Z,58.30
